createdAt,value
2023-02-16T00:01:50.867Z,5.14
2023-02-16T00:04:24.163Z,5.20
2023-02-16T00:06:50.994Z,5.03
2023-02-16T00:09:17.409Z,4.98
2023-02-16T00:12:02.430Z,4.99
2023-02-16T00:14:28.588Z,4.85
2023-02-16T06:08:46.938Z,4.32
2023-02-16T06:11:31.422Z,4.14
2023-02-16T06:13:58.747Z,4.19
2023-02-16T06:16:26.677Z,4.22
2023-02-16T06:18:53.451Z,4.35
2023-02-16T06:21:20.416Z,4.29
2023-02-16T06:23:46.747Z,4.43
2023-02-16T06:26:12.717Z,4.31
2023-02-16T06:28:38.507Z,4.28
2023-02-16T06:31:04.615Z,4.29
2023-02-16T06:33:30.686Z,4.25
2023-02-16T06:35:56.648Z,4.24
2023-02-16T06:38:22.562Z,4.19
2023-02-16T06:40:54.044Z,4.28
2023-02-16T06:43:20.509Z,4.27
2023-02-16T06:45:47.216Z,4.27
2023-02-16T06:48:13.565Z,4.43
2023-02-16T06:50:39.413Z,4.37
2023-02-16T06:53:05.754Z,4.40
2023-02-16T06:55:35.911Z,4.41
2023-02-16T06:58:05.405Z,4.36
2023-02-16T07:00:31.732Z,4.48
2023-02-16T07:02:57.738Z,4.51
2023-02-16T07:05:24.182Z,4.26
2023-02-16T07:07:50.290Z,4.33
2023-02-16T07:10:16.167Z,4.29
2023-02-16T07:12:41.980Z,4.36
2023-02-16T07:15:08.536Z,4.30
2023-02-16T07:17:34.334Z,4.42
2023-02-16T07:20:00.264Z,4.51
2023-02-16T07:22:26.093Z,4.63
2023-02-16T07:24:51.938Z,4.80
2023-02-16T07:27:17.752Z,4.92
2023-02-16T07:29:46.004Z,4.94
2023-02-16T07:32:11.894Z,4.90
2023-02-16T07:34:37.732Z,4.82
2023-02-16T07:37:04.486Z,5.06
2023-02-16T07:39:30.320Z,4.98
2023-02-16T07:41:56.106Z,5.09
2023-02-16T07:44:21.940Z,5.03
2023-02-16T07:46:47.740Z,5.08
2023-02-16T07:49:13.581Z,4.93
2023-02-16T07:51:39.904Z,4.92
2023-02-16T07:54:06.298Z,4.82
2023-02-16T07:56:34.158Z,4.93
2023-02-16T07:59:01.379Z,5.07
2023-02-16T08:01:29.172Z,5.06
2023-02-16T08:03:55.558Z,5.15
2023-02-16T08:06:22.298Z,5.33
2023-02-16T08:08:48.322Z,5.44
2023-02-16T08:11:23.187Z,5.38
2023-02-16T08:13:49.744Z,5.39
2023-02-16T08:16:18.602Z,5.45
2023-02-16T08:18:44.597Z,5.43
2023-02-16T08:21:15.467Z,5.39
2023-02-16T08:23:46.771Z,5.39
2023-02-16T08:26:17.944Z,5.33
2023-02-16T08:28:45.937Z,5.40
2023-02-16T08:31:13.530Z,5.42
2023-02-16T08:33:39.619Z,5.44
2023-02-16T08:36:08.817Z,5.29
2023-02-16T08:38:35.296Z,5.33
2023-02-16T08:41:01.196Z,5.39
2023-02-16T08:43:26.953Z,5.45
2023-02-16T08:45:53.122Z,5.70
2023-02-16T08:48:19.213Z,5.68
2023-02-16T08:50:46.421Z,5.70
2023-02-16T08:53:14.588Z,5.83
2023-02-16T08:55:40.473Z,5.78
2023-02-16T08:58:06.470Z,5.71
2023-02-16T09:00:34.882Z,5.56
2023-02-16T09:03:01.467Z,5.39
2023-02-16T09:05:30.389Z,5.60
2023-02-16T09:07:56.911Z,5.45
2023-02-16T09:10:22.798Z,5.41
2023-02-16T09:12:49.170Z,5.59
2023-02-16T09:15:15.776Z,5.47
2023-02-16T09:17:42.245Z,5.61
2023-02-16T09:20:09.354Z,5.65
2023-02-16T09:22:35.317Z,5.71
2023-02-16T09:25:01.113Z,5.71
2023-02-16T09:27:26.913Z,5.67
2023-02-16T09:29:52.921Z,5.78
2023-02-16T09:32:18.823Z,5.80
2023-02-16T09:34:45.489Z,6.09
2023-02-16T09:37:11.357Z,6.32
2023-02-16T09:39:37.105Z,6.57
2023-02-16T09:42:27.731Z,6.91
2023-02-16T09:45:00.616Z,6.99
2023-02-16T09:47:33.964Z,7.11
2023-02-16T09:50:04.440Z,7.05
2023-02-16T09:52:41.833Z,7.14
2023-02-16T09:55:12.620Z,7.06
2023-02-16T09:57:41.362Z,7.40
2023-02-16T10:00:31.562Z,7.34
2023-02-16T10:03:15.331Z,7.25
2023-02-16T10:05:58.032Z,7.28
2023-02-16T10:08:29.178Z,7.80
2023-02-16T10:11:27.821Z,10.41
2023-02-16T10:13:59.150Z,13.72
2023-02-16T10:16:34.199Z,14.97
2023-02-16T10:19:07.424Z,16.66
2023-02-16T10:21:33.412Z,14.10
2023-02-16T10:24:06.928Z,10.97
2023-02-16T10:26:35.978Z,10.10
2023-02-16T10:29:07.708Z,9.44
2023-02-16T10:31:40.173Z,12.57
2023-02-16T10:34:45.096Z,14.76
2023-02-16T10:37:23.273Z,11.38
2023-02-16T10:40:31.449Z,9.30
2023-02-16T10:43:10.586Z,9.29
2023-02-16T10:45:49.639Z,10.55
2023-02-16T10:48:20.320Z,11.47
2023-02-16T10:50:57.906Z,10.87
2023-02-16T10:53:46.950Z,10.11
2023-02-16T10:56:40.792Z,9.84
2023-02-16T10:59:30.231Z,8.68
2023-02-16T11:01:58.415Z,8.18
2023-02-16T11:04:33.429Z,7.45
2023-02-16T11:07:13.457Z,7.31
2023-02-16T11:09:41.301Z,7.21
2023-02-16T11:12:26.345Z,7.17
2023-02-16T11:15:19.119Z,7.23
2023-02-16T11:17:59.269Z,7.02
2023-02-16T11:20:47.026Z,7.01
2023-02-16T11:23:27.727Z,6.90
2023-02-16T11:26:11.034Z,6.90
2023-02-16T11:28:43.264Z,6.99
2023-02-16T11:31:09.345Z,7.02
2023-02-16T11:33:37.297Z,7.06
2023-02-16T11:36:17.957Z,7.15
2023-02-16T11:38:59.312Z,7.24
2023-02-16T11:41:26.544Z,7.25
2023-02-16T11:43:52.852Z,7.26
2023-02-16T11:46:22.223Z,7.25
2023-02-16T11:48:48.911Z,7.04
2023-02-16T11:51:27.768Z,7.02
2023-02-16T11:54:03.890Z,7.18
2023-02-16T11:56:32.923Z,7.24
2023-02-16T11:59:20.999Z,7.38
2023-02-16T12:02:33.421Z,7.94
2023-02-16T12:05:38.549Z,9.50
2023-02-16T12:08:32.861Z,11.42
2023-02-16T12:11:27.843Z,11.72
2023-02-16T12:14:11.837Z,11.59
2023-02-16T12:16:48.114Z,10.93
2023-02-16T12:19:32.564Z,9.84
2023-02-16T12:22:22.294Z,9.54
2023-02-16T12:25:03.468Z,9.33
2023-02-16T12:27:55.176Z,8.95
2023-02-16T12:30:52.101Z,8.74
2023-02-16T12:33:36.502Z,8.96
2023-02-16T12:36:11.079Z,9.46
2023-02-16T12:38:46.022Z,9.25
2023-02-16T12:41:27.776Z,9.22
2023-02-16T12:43:59.606Z,9.35
2023-02-16T12:46:42.223Z,9.17
2023-02-16T12:49:24.568Z,8.73
2023-02-16T12:51:59.142Z,8.62
2023-02-16T12:54:43.918Z,8.07
2023-02-16T12:57:15.125Z,8.11
2023-02-16T12:59:56.768Z,8.01
2023-02-16T13:02:46.369Z,7.86
2023-02-16T13:05:30.481Z,7.87
2023-02-16T13:08:11.960Z,7.79
2023-02-16T13:10:54.063Z,7.63
2023-02-16T13:13:28.804Z,7.63
2023-02-16T13:16:04.585Z,7.63
2023-02-16T13:18:34.661Z,7.66
2023-02-16T13:21:10.414Z,7.81
2023-02-16T13:23:59.606Z,7.81
2023-02-16T13:26:41.136Z,7.82
2023-02-16T13:29:22.099Z,7.85
2023-02-16T13:32:00.036Z,7.72
2023-02-16T13:34:46.614Z,7.73
2023-02-16T13:37:33.770Z,7.75
2023-02-16T13:40:15.143Z,7.81
2023-02-16T13:43:08.290Z,7.79
2023-02-16T13:45:40.429Z,7.54
2023-02-16T13:48:15.646Z,7.58
2023-02-16T13:50:42.175Z,7.62
2023-02-16T13:53:16.473Z,7.59
2023-02-16T13:55:42.418Z,7.52
2023-02-16T13:58:14.141Z,7.55
2023-02-16T14:00:44.376Z,7.45
2023-02-16T14:03:31.418Z,7.47
2023-02-16T14:06:31.648Z,7.64
2023-02-16T14:09:15.803Z,7.67
2023-02-16T14:11:58.645Z,7.76
2023-02-16T14:14:32.143Z,7.85
2023-02-16T14:17:22.754Z,7.91
2023-02-16T14:19:48.615Z,8.19
2023-02-16T14:22:18.940Z,8.21
2023-02-16T14:24:59.064Z,8.42
2023-02-16T14:27:42.422Z,8.76
2023-02-16T14:30:44.637Z,8.73
2023-02-16T14:33:16.602Z,8.83
2023-02-16T14:36:03.940Z,8.90
2023-02-16T14:38:33.998Z,8.80
2023-02-16T14:41:03.525Z,8.89
2023-02-16T14:43:29.402Z,8.74
2023-02-16T14:46:10.849Z,8.69
2023-02-16T14:49:14.183Z,8.72
2023-02-16T14:51:53.495Z,8.69
2023-02-16T14:54:40.601Z,8.72
2023-02-16T14:57:33.057Z,8.74
2023-02-16T15:00:01.844Z,8.75
2023-02-16T15:02:33.546Z,8.62
2023-02-16T15:05:16.989Z,8.66
2023-02-16T15:07:45.817Z,8.68
2023-02-16T15:10:17.952Z,8.55
2023-02-16T15:12:44.066Z,8.54
2023-02-16T15:15:18.931Z,8.35
2023-02-16T15:17:47.271Z,8.34
2023-02-16T15:20:26.907Z,8.40
2023-02-16T15:22:56.247Z,8.44
2023-02-16T15:25:29.479Z,8.52
2023-02-16T15:28:10.182Z,8.59
2023-02-16T15:30:40.044Z,8.66
2023-02-16T15:33:22.339Z,8.65
2023-02-16T15:35:53.706Z,8.54
2023-02-16T15:38:23.385Z,8.52
2023-02-16T15:40:54.744Z,8.29
2023-02-16T15:43:37.746Z,8.32
2023-02-16T15:46:07.402Z,8.15
2023-02-16T15:48:37.634Z,8.20
2023-02-16T15:51:14.858Z,8.23
2023-02-16T15:53:52.285Z,8.22
2023-02-16T15:56:30.569Z,8.19
2023-02-16T15:59:00.913Z,8.05
2023-02-16T16:01:33.517Z,8.01
2023-02-16T16:04:21.157Z,8.13
2023-02-16T16:06:50.040Z,8.18
2023-02-16T16:09:25.469Z,8.21
2023-02-16T16:11:55.250Z,7.98
2023-02-16T16:14:22.164Z,7.98
2023-02-16T16:16:48.731Z,7.96
2023-02-16T16:19:20.558Z,7.91
2023-02-16T16:21:50.639Z,7.94
2023-02-16T16:24:39.143Z,7.84
2023-02-16T16:27:12.330Z,7.79
2023-02-16T16:29:41.508Z,7.63
2023-02-16T16:32:23.026Z,7.68
2023-02-16T16:34:49.597Z,7.51
2023-02-16T16:37:27.602Z,7.48
2023-02-16T16:40:03.469Z,7.50
2023-02-16T16:42:31.803Z,7.44
2023-02-16T16:45:00.978Z,7.51
2023-02-16T16:47:32.371Z,7.39
2023-02-16T16:50:09.792Z,7.42
2023-02-16T16:52:42.953Z,7.21
2023-02-16T16:55:20.939Z,7.12
2023-02-16T16:58:10.092Z,7.26
2023-02-16T17:00:40.321Z,7.21
2023-02-16T17:03:08.212Z,7.10
2023-02-16T17:05:35.171Z,7.08
2023-02-16T17:08:01.231Z,7.15
2023-02-16T17:10:27.152Z,7.05
2023-02-16T17:12:56.256Z,6.95
2023-02-16T17:15:44.886Z,7.10
2023-02-16T17:18:16.469Z,7.00
2023-02-16T17:20:42.841Z,7.01
2023-02-16T17:23:13.693Z,7.09
2023-02-16T17:25:40.048Z,6.89
2023-02-16T17:28:06.510Z,6.97
2023-02-16T17:30:32.682Z,7.05
2023-02-16T17:32:59.342Z,7.00
2023-02-16T17:35:25.491Z,6.78
2023-02-16T17:37:51.289Z,6.76
2023-02-16T17:40:19.891Z,6.66
2023-02-16T17:42:46.430Z,6.70
2023-02-16T17:45:14.732Z,6.60
2023-02-16T17:47:45.906Z,6.67
2023-02-16T17:50:14.047Z,6.62
2023-02-16T17:52:43.497Z,6.50
2023-02-16T17:55:10.483Z,6.52
2023-02-16T17:57:36.920Z,6.54
2023-02-16T18:00:05.396Z,6.39
2023-02-16T18:02:31.355Z,6.34
2023-02-16T18:04:57.247Z,6.29
2023-02-16T18:07:23.088Z,6.40
2023-02-16T18:09:49.012Z,6.43
2023-02-16T18:12:14.917Z,6.36
2023-02-16T18:14:40.857Z,6.36
2023-02-16T18:17:07.430Z,6.43
2023-02-16T18:19:33.497Z,6.41
2023-02-16T18:22:00.737Z,6.35
2023-02-16T18:24:26.601Z,6.35
2023-02-16T18:26:54.056Z,6.33
2023-02-16T18:29:19.913Z,6.22
2023-02-16T18:31:46.954Z,6.35
2023-02-16T18:34:13.241Z,6.33
2023-02-16T18:36:39.311Z,6.27
2023-02-16T18:39:06.507Z,6.21
2023-02-16T18:41:33.082Z,6.30
2023-02-16T18:43:59.039Z,6.33
2023-02-16T18:46:25.098Z,6.28
2023-02-16T18:48:51.015Z,6.21
2023-02-16T18:51:17.124Z,6.14
2023-02-16T18:53:44.062Z,6.25
2023-02-16T18:56:11.537Z,6.26
2023-02-16T18:58:37.872Z,6.17
2023-02-16T19:01:25.171Z,6.32
2023-02-16T19:03:51.120Z,6.19
2023-02-16T19:06:17.104Z,6.21
2023-02-16T19:08:43.014Z,6.11
2023-02-16T19:11:08.838Z,6.07
2023-02-16T19:13:34.872Z,6.07
2023-02-16T19:16:00.787Z,6.14
2023-02-16T19:18:28.484Z,6.14
2023-02-16T19:20:54.625Z,6.12
2023-02-16T19:23:20.685Z,6.12
2023-02-16T19:25:46.464Z,6.13
2023-02-16T19:28:12.278Z,6.20
2023-02-16T19:30:38.373Z,6.14
2023-02-16T19:33:04.728Z,6.13
2023-02-16T19:35:30.631Z,6.11
2023-02-16T19:37:56.664Z,6.18
2023-02-16T19:40:22.531Z,6.15
2023-02-16T19:42:48.845Z,6.12
2023-02-16T19:45:14.717Z,6.22
2023-02-16T19:47:40.650Z,6.22
2023-02-16T19:50:06.901Z,6.12
2023-02-16T19:52:32.754Z,6.17
2023-02-16T19:54:58.588Z,6.12
2023-02-16T19:57:24.465Z,6.23
2023-02-16T19:59:50.261Z,6.14
2023-02-16T20:02:16.373Z,6.18
2023-02-16T20:04:45.124Z,6.19
2023-02-16T20:07:10.977Z,6.20
2023-02-16T20:09:36.851Z,6.12
2023-02-16T20:12:03.981Z,6.18
2023-02-16T20:14:30.040Z,6.21
2023-02-16T20:16:55.923Z,6.16
2023-02-16T20:19:21.818Z,6.31
2023-02-16T20:21:47.636Z,6.24
2023-02-16T20:24:14.138Z,6.28
2023-02-16T20:26:43.930Z,6.19
2023-02-16T20:29:12.376Z,6.23
2023-02-16T20:31:41.948Z,6.27
2023-02-16T20:34:08.252Z,6.35
2023-02-16T20:36:35.204Z,6.31
2023-02-16T20:39:01.200Z,6.20
2023-02-16T20:41:27.374Z,6.19
2023-02-16T20:43:53.621Z,6.16
2023-02-16T20:46:22.709Z,6.03
2023-02-16T20:48:49.496Z,6.02
2023-02-16T20:51:16.296Z,6.01
2023-02-16T20:53:42.691Z,5.86
2023-02-16T20:56:16.004Z,5.77
2023-02-16T20:58:43.764Z,5.86
2023-02-16T21:01:20.668Z,5.69
2023-02-16T21:03:47.484Z,5.75
2023-02-16T21:06:14.861Z,5.79
2023-02-16T21:08:40.884Z,5.73
2023-02-16T21:11:07.299Z,5.73
2023-02-16T21:13:33.628Z,5.72
2023-02-16T21:15:59.700Z,5.66
2023-02-16T21:18:25.755Z,5.73
2023-02-16T21:20:51.769Z,5.60
2023-02-16T21:23:18.037Z,5.59
2023-02-16T21:25:44.213Z,5.62
2023-02-16T21:28:10.166Z,5.62
2023-02-16T21:30:40.212Z,5.61
2023-02-16T21:33:06.106Z,5.65
2023-02-16T21:35:32.656Z,5.64
2023-02-16T21:37:58.694Z,5.72
2023-02-16T21:40:43.514Z,5.61
2023-02-16T21:43:10.389Z,5.66
2023-02-16T21:45:36.314Z,5.69
2023-02-16T21:48:20.550Z,5.72
2023-02-16T21:50:46.679Z,5.67
2023-02-16T21:53:12.674Z,5.63
2023-02-16T21:55:57.513Z,5.53
2023-02-16T21:58:26.076Z,5.72
2023-02-16T22:00:52.629Z,5.79
2023-02-16T22:03:19.705Z,5.69
2023-02-16T22:05:45.887Z,5.72
2023-02-16T22:08:14.368Z,5.71
2023-02-16T22:10:40.708Z,5.70
2023-02-16T22:13:07.961Z,5.77
2023-02-16T22:15:36.582Z,5.77
2023-02-16T22:18:05.556Z,5.82
2023-02-16T22:20:31.769Z,5.87
2023-02-16T22:22:57.542Z,6.00
2023-02-16T22:25:23.453Z,5.94
2023-02-16T22:27:49.363Z,5.91
2023-02-16T22:30:15.361Z,5.88
2023-02-16T22:32:41.144Z,5.97
2023-02-16T22:35:07.212Z,5.80
2023-02-16T22:37:33.364Z,5.87
2023-02-16T22:39:59.427Z,5.85
2023-02-16T22:42:25.664Z,5.81
2023-02-16T22:44:51.519Z,5.81
2023-02-16T22:47:17.698Z,5.90
2023-02-16T22:49:43.558Z,5.80
2023-02-16T22:52:10.635Z,5.81
2023-02-16T22:54:37.197Z,5.88
2023-02-16T22:57:03.343Z,5.91
2023-02-16T22:59:29.158Z,5.93
2023-02-16T23:01:54.996Z,5.92
2023-02-16T23:04:20.879Z,5.84
2023-02-16T23:06:46.816Z,5.93
2023-02-16T23:09:16.348Z,5.90
2023-02-16T23:11:42.665Z,5.87
2023-02-16T23:14:15.463Z,5.97
2023-02-16T23:16:50.556Z,5.95
2023-02-16T23:19:19.732Z,6.01
2023-02-16T23:21:46.800Z,5.98
2023-02-16T23:24:16.520Z,6.12
2023-02-16T23:26:42.586Z,6.20
2023-02-16T23:29:08.979Z,6.18
2023-02-16T23:31:37.111Z,6.21
2023-02-16T23:34:04.411Z,6.26
2023-02-16T23:36:32.005Z,6.34
2023-02-16T23:39:04.039Z,6.38
2023-02-16T23:41:29.846Z,6.41
2023-02-16T23:43:55.876Z,6.45
2023-02-16T23:46:22.630Z,6.38
2023-02-16T23:48:48.882Z,6.41
2023-02-16T23:51:14.702Z,6.53
2023-02-16T23:53:40.518Z,6.55
2023-02-16T23:56:08.211Z,6.54
2023-02-16T23:58:40.490Z,6.57
